Araxos, Greece

10:25 AM EEST on July 23, 2014 (GMT +0300)
Araxos Air Base (LGRX) Elev 49 ft | 38.15 °N, 21.43 °E | Change Station

Current weather conditions updated 35 minutes ago

Scattered Clouds
Scattered Clouds
79 °F
Feels Like 79 °F
N
7
Wind Variable Wind from WSW

Today is forecast to be Much Cooler than yesterday. Thunderstorms likely early tonight.

Today
High -- | Low -- °F
--% Chance of Precip.
Yesterday
High -- | Low -- °F
Precip. -- in
6:29 AM 8:51 PM
Waning Crescent, 12% visible
Pressure 29.74 in
Visibility 6.2 miles
Clouds Scattered Clouds 2500 ft
Dew Point 70 °F
Humidity 74%
Rainfall 0.00 in
Snow Depth Not available.
UV 4 out of 12
Pollen Not available.
Air Quality Not available.
Flu Activity Not available.
METAR LGRX 230650Z 24006KT 9999 SCT025 26/21 Q1007 NOSIG BLU

More Conditions Fewer Conditions

Pressure 29.74 in
Visibility 6.2 miles
Clouds Scattered Clouds 2500 ft
Dew Point 70 °F
Humidity 74%
Rainfall 0.00 in
Snow Depth Not available.
UV 4 out of 12
Pollen Not available.
Air Quality Not available.
Flu Activity Not available.
METAR LGRX 230650Z 24006KT 9999 SCT025 26/21 Q1007 NOSIG BLU

More Conditions Fewer Conditions

10-Day Weather Forecast

Almanac

Astronomy

Jul. 23, 2014 Rise Set
Actual Time 6:29 AM EEST 8:51 PM EEST
Civil Twilight 5:59 AM EEST 9:21 PM EEST
Nautical Twilight 5:22 AM EEST 9:58 PM EEST
Astronomical Twilight 4:41 AM EEST 10:39 PM EEST
Moon 3:33 AM EEST 6:05 PM EEST
Length of Visible Light 15h 22m
Length of Day
14h 22m
Tomorrow will be 1m 35s shorter.
Waning Crescent, 12% of the Moon is Illuminated
Today
Waning Crescent
Jul 26
New
Aug 3
First Quarter
Aug 10
Full
Aug 17
Last Quarter

Yesterday's Extremes

Country Highs Country Lows

Community

WunderPhotos

Upload Photos

1,736,527 photos uploaded!

Nearby

Snow Depth

Not available.

Earthquake Activity

City Distance Mag. Time & Date
No recent earthquake activity has been reported nearby.
Minimum magnitude displayed is 2.5.

Coastal Water Temperatures

Place Temperature
No Stations Reporting

Nearby Weather Stations

Station Location Temp. Heat Index Dew Point Humidity Wind Precip. Elev Updated Type
Pl. Georgiou, Patra 86.7 °F 93 °F 72 °F 62% WNW  at  5.4 mph 0.00 in / hr 52 ft 10:20 AM EEST Normal
Patra - KETX, u03C5%u03C4%u03B9%u03BA%u03AE %u0395%u03BB%u03BB%u03AC%u03B4%u03B1 %u03BA%u03B1%GREECE 79.7 °F 82 °F 68 °F 68% NW  at  4.1 mph 0.00 in / hr 184 ft 10:24 AM EEST Rapid Fire

Show More Stations Show Fewer Stations